Time;durP1;ratioP1;P1;durP2;ratioP2;P2;SDS_P1;SDS_P2;PMS_P1;PMS_P2;Temp;Humidity;BMP_temperature;BMP_pressure;BME280_temperature;BME280_humidity;BME280_pressure;Samples;Min_cycle;Max_cycle;Signal;HPM_P1;HPM_P2
2023/09/24 00:00:01;;;;;;;18.27;9.70;;;;;;;10.55;74.67;98413.78;6322880;28;20116;-70
2023/09/24 00:03:05;;;;;;;19.15;9.77;;;;;;;10.51;74.72;98417.47;6322912;28;20052;-70
2023/09/24 00:06:09;;;;;;;18.50;10.13;;;;;;;10.51;74.65;98417.47;6322207;28;20043;-70
2023/09/24 00:09:12;;;;;;;17.08;10.70;;;;;;;10.53;74.52;98427.03;6322452;28;20052;-70
2023/09/24 00:12:17;;;;;;;15.98;10.55;;;;;;;10.58;74.68;98434.72;6321301;28;20059;-70
2023/09/24 00:15:21;;;;;;;19.17;10.23;;;;;;;10.59;74.70;98436.47;6323110;28;20040;-69
2023/09/24 00:18:24;;;;;;;;;;;;;;;10.53;74.79;98426.16;6323434;28;20047;-70
2023/09/24 00:21:29;;;;;;;19.80;9.85;;;;;;;10.49;74.54;98435.09;6323046;28;19924;-70
2023/09/24 00:24:35;;;;;;;;;;;;;;;10.44;74.71;98447.56;6323139;28;20047;-68
2023/09/24 00:27:41;;;;;;;17.98;11.00;;;;;;;10.41;74.42;98442.44;6322840;28;19920;-68
2023/09/24 00:30:48;;;;;;;15.82;10.00;;;;;;;10.38;74.32;98442.56;6322778;28;20048;-69
2023/09/24 00:33:55;;;;;;;23.85;12.30;;;;;;;10.36;74.30;98445.25;6322618;28;20040;-68
2023/09/24 00:36:58;;;;;;;23.00;12.32;;;;;;;10.30;74.34;98438.47;6322609;28;20138;-68
2023/09/24 00:40:06;;;;;;;23.60;11.32;;;;;;;10.26;74.41;98439.44;6321564;28;20043;-69
2023/09/24 00:43:33;;;;;;;22.75;11.50;;;;;;;10.32;74.76;98433.97;6320787;28;20178;-69
2023/09/24 00:46:35;;;;;;;20.40;11.32;;;;;;;10.24;74.69;98441.28;6303351;28;20047;-70
2023/09/24 00:49:39;;;;;;;20.73;11.65;;;;;;;10.26;74.67;98449.97;6322197;28;20051;-69
2023/09/24 00:52:45;;;;;;;21.58;12.15;;;;;;;10.27;74.67;98450.84;6322554;28;20058;-69
2023/09/24 00:55:47;;;;;;;23.20;11.60;;;;;;;10.24;74.79;98430.75;6303586;28;20048;-69
2023/09/24 00:58:50;;;;;;;24.20;12.80;;;;;;;10.30;74.61;98451.63;6321250;28;20501;-69
2023/09/24 01:01:57;;;;;;;20.67;10.07;;;;;;;10.31;74.58;98442.78;6322034;28;20040;-69
2023/09/24 01:05:01;;;;;;;18.48;10.02;;;;;;;10.31;74.48;98448.06;6320592;28;20556;-69
2023/09/24 01:08:05;;;;;;;15.75;9.77;;;;;;;10.29;74.29;98449.88;6321659;28;20132;-69
2023/09/24 01:11:07;;;;;;;21.35;9.48;;;;;;;10.24;74.35;98443.91;6321189;28;20047;-70
2023/09/24 01:14:14;;;;;;;16.55;9.30;;;;;;;10.21;74.12;98441.41;6321619;28;20048;-69
2023/09/24 01:17:18;;;;;;;17.67;8.80;;;;;;;10.23;74.45;98450.09;6321516;28;20044;-70
2023/09/24 01:20:27;;;;;;;12.20;7.78;;;;;;;10.18;74.58;98441.50;6321530;28;20043;-69
2023/09/24 01:23:35;;;;;;;12.57;7.72;;;;;;;10.13;74.80;98443.47;6321298;28;20098;-69
2023/09/24 01:26:37;;;;;;;12.30;7.95;;;;;;;10.13;74.86;98451.34;6320830;28;20055;-69
2023/09/24 01:29:44;;;;;;;15.13;8.52;;;;;;;10.11;75.05;98455.84;6321172;28;20147;-69
2023/09/24 01:32:50;;;;;;;16.42;9.10;;;;;;;10.09;75.06;98447.97;6320395;28;20048;-69
2023/09/24 01:35:53;;;;;;;13.70;8.63;;;;;;;10.08;74.85;98456.81;6320659;28;20555;-69
2023/09/24 01:38:57;;;;;;;11.45;7.55;;;;;;;10.07;75.03;98464.72;6319016;28;20536;-69
2023/09/24 01:42:01;;;;;;;10.05;7.15;;;;;;;9.99;75.05;98451.91;6320734;28;20047;-69
2023/09/24 01:45:08;;;;;;;14.45;7.90;;;;;;;10.09;75.01;98468.16;6320845;28;20044;-69
2023/09/24 01:48:13;;;;;;;17.48;8.30;;;;;;;10.08;74.89;98467.31;6320525;28;20429;-69
2023/09/24 01:51:17;;;;;;;13.80;7.47;;;;;;;10.07;74.67;98470.00;6320206;28;20412;-69
2023/09/24 01:54:22;;;;;;;14.07;6.80;;;;;;;10.06;74.69;98469.13;6320731;28;20051;-69
2023/09/24 01:57:23;;;;;;;12.55;7.15;;;;;;;9.92;74.62;98444.28;6319782;28;20054;-69
2023/09/24 02:00:27;;;;;;;10.80;5.80;;;;;;;9.99;74.62;98462.41;6319990;28;20055;-69
2023/09/24 02:03:29;;;;;;;13.95;6.45;;;;;;;10.03;74.53;98473.66;6319951;28;20044;-69
2023/09/24 02:06:34;;;;;;;13.73;6.55;;;;;;;10.03;74.35;98468.41;6320271;28;20052;-69
2023/09/24 02:09:41;;;;;;;11.27;6.07;;;;;;;10.03;74.31;98474.53;6319700;28;20132;-69
2023/09/24 02:12:48;;;;;;;9.93;6.05;;;;;;;10.06;74.34;98468.28;6318615;28;20040;-69
2023/09/24 02:15:56;;;;;;;14.73;6.22;;;;;;;10.08;74.28;98467.31;6320369;28;20040;-69
2023/09/24 02:19:00;;;;;;;11.63;6.30;;;;;;;10.14;74.37;98465.38;6318941;28;20032;-68
2023/09/24 02:22:05;;;;;;;9.52;5.65;;;;;;;10.15;74.13;98465.31;6317623;28;20044;-70
2023/09/24 02:25:12;;;;;;;9.98;6.07;;;;;;;10.19;74.03;98463.41;6318281;28;20484;-69
2023/09/24 02:28:18;;;;;;;8.45;6.57;;;;;;;10.30;73.79;98467.41;6317275;28;20051;-69
2023/09/24 02:31:21;;;;;;;8.75;6.03;;;;;;;10.36;73.72;98468.94;6318562;28;20044;-69
2023/09/24 02:34:28;;;;;;;12.30;7.22;;;;;;;10.40;73.66;98472.31;6319999;28;20040;-69
2023/09/24 02:37:32;;;;;;;18.38;10.00;;;;;;;10.39;73.45;98465.31;6319576;28;20051;-69
2023/09/24 02:40:43;;;;;;;11.15;6.30;;;;;;;10.46;73.50;98474.69;6319711;28;20651;-69
2023/09/24 02:43:44;;;;;;;12.25;6.47;;;;;;;10.51;73.41;98475.38;6318383;28;20048;-70
2023/09/24 02:46:51;;;;;;;12.70;6.28;;;;;;;10.65;73.44;98486.22;6318004;28;20044;-70
2023/09/24 02:49:55;;;;;;;10.02;6.30;;;;;;;10.74;73.35;98483.22;6318056;28;20044;-70
2023/09/24 02:53:02;;;;;;;;;;;;;;;10.85;73.40;98469.63;6318679;28;20040;-70
2023/09/24 02:56:04;;;;;;;9.50;5.68;;;;;;;10.98;72.84;98476.13;6319046;28;20022;-70
2023/09/24 02:59:11;;;;;;;9.95;5.60;;;;;;;11.26;72.58;98484.63;6317660;28;20420;-70
2023/09/24 03:02:13;;;;;;;10.40;6.00;;;;;;;11.61;72.04;98486.66;6317759;28;20052;-70
2023/09/24 03:05:20;;;;;;;12.48;5.78;;;;;;;12.02;71.15;98486.63;6319073;28;20514;-70
2023/09/24 03:08:23;;;;;;;9.90;5.05;;;;;;;12.33;70.18;98488.72;6319057;28;20177;-70
2023/09/24 03:11:29;;;;;;;10.10;5.63;;;;;;;12.25;69.58;98439.84;6319003;28;20043;-70
2023/09/24 03:14:35;;;;;;;8.85;5.03;;;;;;;12.79;69.09;98488.34;6319371;28;20409;-70
2023/09/24 03:17:38;;;;;;;11.05;5.60;;;;;;;13.01;68.66;98489.00;6319137;28;20188;-70
2023/09/24 03:20:44;;;;;;;5.90;4.38;;;;;;;13.17;68.46;98493.56;6319851;28;20110;-70
2023/09/24 03:23:45;;;;;;;7.85;4.63;;;;;;;13.29;68.10;98487.69;6323524;28;20044;-70
2023/09/24 03:26:50;;;;;;;7.00;4.15;;;;;;;13.50;67.88;98495.47;6324223;28;20052;-70
2023/09/24 03:29:54;;;;;;;9.18;4.85;;;;;;;13.64;67.57;98492.97;6324086;28;20417;-70
2023/09/24 03:32:58;;;;;;;8.00;4.22;;;;;;;13.76;67.35;98489.69;6324028;28;20047;-70
2023/09/24 03:36:02;;;;;;;8.50;4.13;;;;;;;13.96;67.21;98493.09;6321823;28;20185;-70
2023/09/24 03:39:04;;;;;;;8.05;4.13;;;;;;;14.11;67.04;98497.56;6323312;28;20094;-70
2023/09/24 03:42:10;;;;;;;9.00;4.22;;;;;;;14.29;66.62;98496.56;6323135;28;20040;-70
2023/09/24 03:45:19;;;;;;;11.15;4.45;;;;;;;14.41;66.26;98494.19;6323468;28;20047;-70
2023/09/24 03:48:23;;;;;;;13.60;7.25;;;;;;;14.60;66.01;98500.22;6322359;28;20048;-70
2023/09/24 03:51:29;;;;;;;14.27;4.95;;;;;;;14.73;65.73;98492.47;6324092;28;20126;-70
2023/09/24 03:54:32;;;;;;;10.40;4.93;;;;;;;15.00;65.29;98492.69;6322937;28;20051;-70
2023/09/24 03:57:36;;;;;;;9.15;4.18;;;;;;;15.28;64.66;98505.22;6323373;28;20416;-70
2023/09/24 04:00:41;;;;;;;12.20;4.53;;;;;;;15.55;64.19;98509.88;6323315;28;20040;-70
2023/09/24 04:03:51;;;;;;;19.15;7.22;;;;;;;15.73;63.49;98500.84;6322763;28;20158;-71
2023/09/24 04:06:56;;;;;;;8.88;3.78;;;;;;;15.78;62.79;98500.56;6322798;28;20569;-69
2023/09/24 04:10:03;;;;;;;5.78;2.85;;;;;;;15.77;62.33;98515.66;6323401;28;20044;-69
2023/09/24 04:13:10;;;;;;;9.55;3.25;;;;;;;15.67;62.17;98514.44;6323134;28;20040;-69
2023/09/24 04:16:14;;;;;;;6.40;2.88;;;;;;;15.46;62.24;98516.56;6322544;28;20071;-70
2023/09/24 04:19:21;;;;;;;6.88;3.30;;;;;;;15.18;62.39;98518.16;6322968;28;20044;-69
2023/09/24 04:22:25;;;;;;;6.18;2.83;;;;;;;14.98;62.85;98521.94;6322067;28;20497;-69
2023/09/24 04:25:27;;;;;;;4.93;2.80;;;;;;;15.06;63.03;98513.56;6321054;28;20056;-69
2023/09/24 04:28:31;;;;;;;4.95;3.15;;;;;;;15.36;62.44;98523.34;6321565;28;20505;-69
2023/09/24 04:31:38;;;;;;;3.75;2.65;;;;;;;15.68;61.73;98525.00;6322410;28;20501;-69
2023/09/24 04:34:47;;;;;;;4.45;2.53;;;;;;;15.77;61.47;98518.28;6321810;28;20040;-69
2023/09/24 04:37:53;;;;;;;4.82;2.97;;;;;;;15.82;61.38;98523.31;6322531;28;20036;-69
2023/09/24 04:40:58;;;;;;;11.88;5.18;;;;;;;15.93;61.32;98523.53;6321758;28;20394;-69
2023/09/24 04:44:00;;;;;;;10.07;5.15;;;;;;;16.21;60.62;98516.53;6322304;28;20043;-69
2023/09/24 04:47:02;;;;;;;7.40;3.80;;;;;;;16.49;59.76;98524.50;6321579;28;20047;-69
2023/09/24 04:50:05;;;;;;;7.22;4.45;;;;;;;16.74;58.88;98521.16;6321978;28;20070;-68
2023/09/24 04:53:08;;;;;;;8.80;4.00;;;;;;;17.17;57.58;98520.22;6322125;28;20044;-69
2023/09/24 04:56:12;;;;;;;9.57;3.80;;;;;;;17.45;56.93;98519.25;6304101;28;20090;-68
2023/09/24 04:59:18;;;;;;;8.90;4.00;;;;;;;17.57;56.53;98523.75;6322191;28;20274;-69
2023/09/24 05:02:23;;;;;;;14.80;6.97;;;;;;;17.71;56.11;98520.16;6322109;28;20047;-69
2023/09/24 05:05:25;;;;;;;6.72;3.90;;;;;;;17.82;55.72;98516.78;6321068;28;20051;-70
2023/09/24 05:08:27;;;;;;;6.50;4.00;;;;;;;17.92;55.21;98512.56;6320812;28;20426;-70
2023/09/24 05:11:32;;;;;;;11.27;5.03;;;;;;;17.87;55.60;98515.53;6320947;28;20048;-70
2023/09/24 05:14:33;;;;;;;12.50;6.25;;;;;;;17.75;55.80;98511.00;6320475;28;20047;-70
2023/09/24 05:17:40;;;;;;;9.13;4.90;;;;;;;17.65;56.40;98504.59;6320519;28;20056;-70
2023/09/24 05:20:43;;;;;;;14.60;6.00;;;;;;;17.63;56.73;98517.16;6321222;28;20043;-70
2023/09/24 05:23:46;;;;;;;14.02;7.40;;;;;;;17.63;56.93;98506.50;6320935;28;20077;-70
2023/09/24 05:26:49;;;;;;;15.30;6.68;;;;;;;17.59;56.62;98494.38;6320806;28;20048;-71
2023/09/24 05:29:55;;;;;;;15.15;8.23;;;;;;;17.91;56.36;98511.69;6321143;28;20083;-68
2023/09/24 05:32:57;;;;;;;14.98;6.25;;;;;;;19.92;52.90;98512.28;6320922;28;20051;-68
2023/09/24 05:35:58;;;;;;;13.27;6.10;;;;;;;25.30;42.54;98523.22;6320787;28;20027;-69
2023/09/24 05:39:03;;;;;;;20.25;7.70;;;;;;;30.56;33.91;98532.16;6321060;28;20048;-69
2023/09/24 05:42:10;;;;;;;16.90;7.85;;;;;;;34.51;28.30;98533.66;6319732;28;20120;-69
2023/09/24 05:45:14;;;;;;;18.35;8.43;;;;;;;36.28;25.40;98539.59;6319552;28;20040;-68
2023/09/24 05:48:17;;;;;;;20.80;11.48;;;;;;;35.34;26.17;98533.03;6320657;28;20054;-70
2023/09/24 05:51:21;;;;;;;24.70;9.63;;;;;;;34.18;27.13;98532.66;6320615;28;20365;-69
2023/09/24 05:54:28;;;;;;;22.50;11.90;;;;;;;33.89;26.95;98522.97;6320510;28;20417;-69
2023/09/24 05:57:33;;;;;;;21.42;11.05;;;;;;;34.36;26.55;98525.69;6320511;28;20418;-68
2023/09/24 06:00:37;;;;;;;22.77;10.07;;;;;;;34.46;26.31;98525.28;6320182;28;20040;-70
2023/09/24 06:03:42;;;;;;;25.75;11.75;;;;;;;33.86;26.44;98530.72;6319769;28;20078;-69
2023/09/24 06:06:43;;;;;;;20.33;11.05;;;;;;;33.29;27.34;98516.50;6320005;28;20051;-69
2023/09/24 06:09:52;;;;;;;20.48;10.63;;;;;;;32.85;27.18;98521.34;6319979;28;20044;-69
2023/09/24 06:12:55;;;;;;;22.95;13.63;;;;;;;32.58;27.62;98512.19;6319469;28;20040;-69
2023/09/24 06:16:06;;;;;;;16.83;8.45;;;;;;;32.87;27.23;98519.25;6320110;28;20052;-69
2023/09/24 06:19:10;;;;;;;18.05;9.13;;;;;;;34.31;25.78;98529.09;6319897;28;20048;-69
2023/09/24 06:22:16;;;;;;;15.93;9.77;;;;;;;35.73;23.77;98521.88;6320145;28;20544;-69
2023/09/24 06:25:17;;;;;;;15.17;8.90;;;;;;;37.59;22.01;98518.31;6319911;28;20077;-69
2023/09/24 06:28:20;;;;;;;16.45;9.25;;;;;;;40.80;19.05;98524.16;6319591;28;20055;-70
2023/09/24 06:31:24;;;;;;;17.48;9.85;;;;;;;43.07;16.88;98520.47;6319743;28;20044;-68
2023/09/24 06:34:28;;;;;;;21.73;8.63;;;;;;;44.43;15.86;98520.19;6320023;28;20054;-68
2023/09/24 06:37:32;;;;;;;16.25;8.68;;;;;;;44.89;15.06;98522.03;6320151;28;20048;-68
2023/09/24 06:40:39;;;;;;;18.63;8.07;;;;;;;45.45;14.72;98521.78;6319612;28;20044;-68
2023/09/24 06:43:45;;;;;;;18.65;9.45;;;;;;;46.76;13.76;98518.22;6319542;28;20130;-68
2023/09/24 06:46:50;;;;;;;16.25;8.93;;;;;;;47.72;13.23;98519.25;6319589;28;20044;-68
2023/09/24 06:49:54;;;;;;;27.88;15.82;;;;;;;48.78;12.28;98518.53;6320774;28;20408;-68
2023/09/24 06:52:57;;;;;;;23.63;8.65;;;;;;;49.59;11.96;98515.19;6321041;28;20051;-68
2023/09/24 06:56:00;;;;;;;23.02;6.90;;;;;;;50.06;11.60;98510.13;6318539;28;20048;-68
2023/09/24 06:59:01;;;;;;;18.00;6.97;;;;;;;50.97;10.73;98514.38;6318499;28;20061;-69
2023/09/24 07:02:03;;;;;;;19.85;6.25;;;;;;;51.40;10.44;98510.88;6319341;28;20032;-68
2023/09/24 07:05:08;;;;;;;20.92;7.00;;;;;;;50.92;10.26;98511.72;6319092;28;20048;-68
2023/09/24 07:08:17;;;;;;;26.20;7.43;;;;;;;51.28;10.15;98507.88;6319054;28;20052;-68
2023/09/24 07:11:32;;;;;;;22.67;6.63;;;;;;;51.61;9.54;98500.69;6318918;28;20178;-68
2023/09/24 07:14:34;;;;;;;16.73;4.80;;;;;;;51.44;10.08;98495.03;6318510;28;20067;-69
2023/09/24 07:17:41;;;;;;;12.00;6.50;;;;;;;51.79;9.95;98495.91;6319319;28;20044;-68
2023/09/24 07:20:49;;;;;;;20.65;6.53;;;;;;;51.79;9.45;98487.47;6318643;28;20040;-68
2023/09/24 07:23:52;;;;;;;14.48;5.55;;;;;;;51.30;9.62;98488.72;6317270;28;20166;-69
2023/09/24 07:26:53;;;;;;;14.68;5.00;;;;;;;51.09;9.84;98489.38;6318775;28;20052;-68
2023/09/24 07:30:02;;;;;;;15.32;4.63;;;;;;;51.64;9.42;98493.56;6318627;28;20035;-69
2023/09/24 07:33:08;;;;;;;13.77;4.57;;;;;;;52.29;9.42;98488.88;6318791;28;20036;-68
2023/09/24 07:36:13;;;;;;;18.00;4.90;;;;;;;52.46;9.25;98494.47;6318801;28;20126;-68
2023/09/24 07:39:17;;;;;;;14.35;5.47;;;;;;;52.52;9.14;98493.13;6318785;28;20044;-68
2023/09/24 07:42:24;;;;;;;5.40;2.83;;;;;;;52.24;8.74;98489.06;6318927;28;20051;-68
2023/09/24 07:45:31;;;;;;;7.78;3.85;;;;;;;52.21;8.67;98481.31;6318762;28;20537;-68
2023/09/24 07:48:33;;;;;;;7.47;3.80;;;;;;;52.26;8.21;98481.09;6318226;28;20051;-68
2023/09/24 07:51:34;;;;;;;8.18;3.38;;;;;;;52.58;8.08;98465.66;6318694;28;20036;-68
2023/09/24 07:54:41;;;;;;;17.17;9.80;;;;;;;53.26;7.63;98465.63;6318494;28;20048;-68
2023/09/24 07:57:44;;;;;;;9.35;7.15;;;;;;;53.60;7.69;98477.78;6318045;28;20044;-68
2023/09/24 08:00:48;;;;;;;12.55;7.30;;;;;;;53.08;7.35;98450.84;6317537;28;20047;-68
2023/09/24 08:03:52;;;;;;;11.50;6.82;;;;;;;53.45;7.23;98469.94;6317589;28;20047;-67
2023/09/24 08:06:56;;;;;;;12.40;6.18;;;;;;;53.80;7.37;98471.31;6318561;28;20040;-67
2023/09/24 08:10:00;;;;;;;9.52;5.15;;;;;;;54.34;6.87;98455.53;6322733;28;20040;-67
2023/09/24 08:13:06;;;;;;;10.70;5.93;;;;;;;54.42;7.14;98454.59;6322962;28;20048;-67
2023/09/24 08:16:10;;;;;;;8.07;5.57;;;;;;;54.64;6.97;98459.81;6323161;28;20493;-67
2023/09/24 08:19:14;;;;;;;7.88;5.47;;;;;;;54.68;7.03;98452.28;6322617;28;20044;-67
2023/09/24 08:22:23;;;;;;;7.28;4.70;;;;;;;54.74;6.91;98449.22;6322659;28;20036;-68
2023/09/24 08:25:27;;;;;;;7.53;5.13;;;;;;;54.96;7.06;98443.13;6322290;28;20051;-68
2023/09/24 08:28:34;;;;;;;9.88;4.63;;;;;;;55.00;6.95;98444.03;6322847;28;20039;-68
2023/09/24 08:31:38;;;;;;;9.13;7.00;;;;;;;54.67;6.81;98438.50;6322502;28;20052;-68
2023/09/24 08:34:42;;;;;;;9.18;5.20;;;;;;;54.36;6.48;98437.09;6322561;28;20040;-68
2023/09/24 08:37:44;;;;;;;4.32;3.10;;;;;;;53.38;7.15;98422.69;6321894;28;20545;-68
2023/09/24 08:40:51;;;;;;;6.82;3.45;;;;;;;52.55;7.23;98420.53;6322435;28;20506;-68
2023/09/24 08:43:56;;;;;;;7.03;4.05;;;;;;;52.94;7.56;98411.75;6322531;28;20040;-68
2023/09/24 08:47:03;;;;;;;4.03;3.50;;;;;;;51.11;8.22;98405.78;6322162;28;20040;-68
2023/09/24 08:50:07;;;;;;;6.97;4.10;;;;;;;46.90;10.26;98387.41;6321433;28;20052;-68
2023/09/24 08:53:12;;;;;;;8.52;4.63;;;;;;;46.55;10.61;98380.34;6321516;28;20402;-67
2023/09/24 08:56:18;;;;;;;4.55;3.83;;;;;;;45.53;11.01;98379.44;6321831;28;20417;-68
2023/09/24 08:59:22;;;;;;;6.10;4.22;;;;;;;44.05;12.30;98369.88;6321453;28;20529;-67
2023/09/24 09:02:28;;;;;;;8.70;6.75;;;;;;;41.18;13.83;98322.78;6321956;28;20044;-67
2023/09/24 09:05:42;;;;;;;6.63;5.30;;;;;;;39.00;15.70;98347.81;6321513;28;20472;-68
2023/09/24 09:08:52;;;;;;;8.38;5.60;;;;;;;37.06;16.91;98344.25;6321681;28;20048;-68
2023/09/24 09:11:59;;;;;;;7.60;6.43;;;;;;;35.75;17.93;98357.34;6321585;28;20040;-67
2023/09/24 09:15:17;;;;;;;10.80;5.78;;;;;;;34.86;19.01;98349.13;6321028;28;20052;-69
2023/09/24 09:18:26;;;;;;;9.60;7.97;;;;;;;34.25;19.89;98338.66;6319881;28;20502;-69
2023/09/24 09:21:28;;;;;;;8.40;6.43;;;;;;;33.98;19.89;98344.19;6320379;28;20048;-69
2023/09/24 09:24:33;;;;;;;8.45;5.88;;;;;;;33.72;20.18;98344.25;6321056;28;20048;-70
2023/09/24 09:27:42;;;;;;;11.55;6.05;;;;;;;34.13;19.90;98345.84;6321271;28;20122;-68
2023/09/24 09:30:57;;;;;;;8.02;5.47;;;;;;;34.75;19.15;98346.25;6320735;28;20051;-69
2023/09/24 09:34:08;;;;;;;8.45;5.97;;;;;;;34.25;19.68;98332.34;6320669;28;20123;-68
2023/09/24 09:37:16;;;;;;;8.25;6.07;;;;;;;33.35;20.70;98327.44;6320754;28;20428;-70
2023/09/24 09:40:18;;;;;;;6.40;5.45;;;;;;;32.50;21.72;98323.47;6320261;28;20055;-68
2023/09/24 09:43:41;;;;;;;13.35;8.93;;;;;;;31.70;22.24;98318.41;6320385;28;20421;-69
2023/09/24 09:46:49;;;;;;;9.80;6.03;;;;;;;31.09;22.87;98320.84;6321359;28;20044;-68
2023/09/24 09:49:58;;;;;;;7.45;5.25;;;;;;;33.26;21.17;98315.03;6320949;28;20493;-68
2023/09/24 09:53:09;;;;;;;9.40;5.03;;;;;;;35.53;18.81;98318.56;6320088;28;20051;-68
2023/09/24 09:56:11;;;;;;;7.03;4.80;;;;;;;34.90;19.15;98313.13;6319906;28;20550;-70
2023/09/24 09:59:19;;;;;;;7.85;5.60;;;;;;;33.73;20.67;98313.16;6320361;28;20135;-68
2023/09/24 10:02:23;;;;;;;14.20;8.05;;;;;;;32.87;21.62;98308.50;6320514;28;20497;-68
2023/09/24 10:05:27;;;;;;;12.88;8.75;;;;;;;32.15;21.97;98299.84;6319669;28;20047;-68
2023/09/24 10:08:35;;;;;;;11.52;8.00;;;;;;;32.10;22.91;98307.81;6320278;28;20560;-68
2023/09/24 10:11:38;;;;;;;10.85;7.53;;;;;;;35.27;19.69;98311.41;6319906;28;20052;-68
2023/09/24 10:14:48;;;;;;;7.75;5.72;;;;;;;38.58;16.96;98315.06;6320435;28;20560;-68
2023/09/24 10:18:11;;;;;;;11.25;6.85;;;;;;;40.97;14.96;98317.06;6319822;28;20052;-68
2023/09/24 10:21:27;;;;;;;7.97;6.50;;;;;;;42.07;13.69;98330.41;6319764;28;20048;-67
2023/09/24 10:24:29;;;;;;;8.38;5.97;;;;;;;42.63;13.26;98320.66;6319311;28;20048;-68
2023/09/24 10:27:32;;;;;;;7.15;5.38;;;;;;;42.51;13.44;98318.97;6319890;28;20052;-68
2023/09/24 10:31:08;;;;;;;7.40;4.63;;;;;;;43.59;12.80;98325.53;6317888;28;20753;-68
2023/09/24 10:34:18;;;;;;;6.78;3.88;;;;;;;44.02;12.20;98314.09;6316065;28;20052;-69
2023/09/24 10:37:30;;;;;;;8.60;7.70;;;;;;;44.49;12.18;98313.66;6319186;28;20059;-68
2023/09/24 10:40:34;;;;;;;6.10;4.35;;;;;;;44.37;11.88;98313.19;6319472;28;20052;-68
2023/09/24 10:43:40;;;;;;;4.80;4.30;;;;;;;43.99;11.84;98300.81;6319824;28;20069;-68
2023/09/24 10:46:44;;;;;;;7.30;3.95;;;;;;;43.91;12.38;98293.88;6319598;28;20421;-68
2023/09/24 10:49:46;;;;;;;7.10;4.55;;;;;;;43.43;12.43;98293.41;6317575;28;20047;-68
2023/09/24 10:52:58;;;;;;;5.55;4.45;;;;;;;42.87;12.77;98293.34;6319263;28;20052;-68
2023/09/24 10:56:02;;;;;;;5.03;4.25;;;;;;;42.26;12.91;98291.19;6319469;28;20039;-68
2023/09/24 10:59:04;;;;;;;21.48;14.85;;;;;;;42.54;12.79;98281.63;6318694;28;20056;-68
2023/09/24 11:02:20;;;;;;;9.48;8.18;;;;;;;43.25;12.39;98290.06;6318053;28;20067;-68
2023/09/24 11:05:23;;;;;;;9.82;7.43;;;;;;;42.54;12.77;98278.84;6318456;28;20044;-68
2023/09/24 11:08:31;;;;;;;3.08;2.78;;;;;;;41.18;13.66;98281.38;6318668;28;20139;-68
2023/09/24 11:11:35;;;;;;;4.97;3.35;;;;;;;39.22;15.19;98279.09;6318669;28;20044;-69
2023/09/24 11:14:42;;;;;;;5.32;3.60;;;;;;;37.70;16.74;98267.56;6318880;28;20527;-68
2023/09/24 11:17:50;;;;;;;4.43;3.03;;;;;;;36.55;17.18;98255.91;6318843;28;20081;-68
2023/09/24 11:20:52;;;;;;;4.97;3.30;;;;;;;36.75;17.62;98255.63;6318131;28;20048;-71
2023/09/24 11:24:16;;;;;;;3.53;2.72;;;;;;;38.09;16.40;98263.22;6318877;28;20040;-68
2023/09/24 11:27:24;;;;;;;5.78;3.75;;;;;;;39.27;15.42;98265.44;6318859;28;20505;-68
2023/09/24 11:30:42;;;;;;;5.95;4.80;;;;;;;39.92;15.00;98261.19;6316914;28;20052;-68
2023/09/24 11:33:56;;;;;;;6.10;4.40;;;;;;;40.14;14.71;98253.75;6318895;28;20062;-68
2023/09/24 11:37:03;;;;;;;23.65;17.65;;;;;;;39.04;15.22;98247.16;6318277;28;20067;-69
2023/09/24 11:40:05;;;;;;;11.10;7.72;;;;;;;37.84;16.09;98247.00;6318911;28;20055;-68
2023/09/24 11:43:14;;;;;;;7.93;5.40;;;;;;;37.87;16.47;98235.50;6321806;28;20406;-69
2023/09/24 11:46:32;;;;;;;5.80;4.40;;;;;;;37.13;16.72;98234.34;6323842;28;20055;-69
2023/09/24 11:49:39;;;;;;;5.63;4.57;;;;;;;36.63;17.37;98236.41;6323720;28;20040;-69
2023/09/24 11:52:48;;;;;;;6.20;5.03;;;;;;;36.60;17.09;98234.13;6323493;28;20044;-69
2023/09/24 11:55:59;;;;;;;5.93;4.38;;;;;;;36.14;17.83;98235.56;6322793;28;20528;-68
2023/09/24 11:59:03;;;;;;;3.90;3.15;;;;;;;34.99;18.87;98236.06;6322858;28;20044;-70
2023/09/24 12:02:09;;;;;;;4.10;3.65;;;;;;;33.79;19.96;98224.94;6323562;28;20040;-68
2023/09/24 12:05:13;;;;;;;5.50;4.35;;;;;;;32.70;21.27;98226.28;6323233;28;20433;-70
2023/09/24 12:08:19;;;;;;;5.00;4.10;;;;;;;32.11;22.13;98218.78;6323268;28;20134;-68
2023/09/24 12:11:22;;;;;;;5.38;4.38;;;;;;;30.92;23.11;98224.31;6322967;28;20071;-69
2023/09/24 12:14:32;;;;;;;6.07;4.13;;;;;;;29.68;24.89;98218.94;6322283;28;20059;-69
2023/09/24 12:17:33;;;;;;;6.90;4.43;;;;;;;28.84;25.71;98216.34;6322383;28;20051;-69
2023/09/24 12:20:43;;;;;;;5.90;4.78;;;;;;;28.20;26.77;98224.78;6304952;28;20047;-69
2023/09/24 12:23:46;;;;;;;8.15;5.72;;;;;;;27.79;27.36;98210.56;6320870;28;20051;-69
2023/09/24 12:26:53;;;;;;;7.15;5.03;;;;;;;27.61;27.86;98214.38;6322856;28;20052;-69
2023/09/24 12:29:56;;;;;;;8.15;4.35;;;;;;;27.47;27.83;98215.09;6322221;28;20505;-69
2023/09/24 12:33:00;;;;;;;8.32;4.93;;;;;;;27.28;28.03;98225.28;6322413;28;20048;-69
2023/09/24 12:36:05;;;;;;;7.60;4.47;;;;;;;27.12;28.71;98222.59;6322359;28;20545;-69
2023/09/24 12:39:11;;;;;;;6.25;4.30;;;;;;;26.85;28.87;98223.78;6322374;28;20044;-69
2023/09/24 12:42:15;;;;;;;7.35;4.47;;;;;;;26.54;29.64;98220.94;6322484;28;20040;-69
2023/09/24 12:45:19;;;;;;;7.70;4.50;;;;;;;26.15;29.88;98211.56;6322704;28;20048;-69
2023/09/24 12:48:25;;;;;;;16.02;10.27;;;;;;;25.93;30.16;98218.44;6321829;28;20457;-69
2023/09/24 12:51:29;;;;;;;6.97;5.20;;;;;;;25.71;30.42;98216.31;6321939;28;20089;-69
2023/09/24 12:54:32;;;;;;;7.90;4.70;;;;;;;25.49;30.76;98218.56;6320808;28;20048;-69
2023/09/24 12:57:37;;;;;;;6.93;4.40;;;;;;;25.19;31.44;98210.97;6321331;28;20541;-69
2023/09/24 13:00:39;;;;;;;7.30;4.38;;;;;;;24.92;32.32;98212.81;6320781;28;20510;-69
2023/09/24 13:03:40;;;;;;;8.60;4.75;;;;;;;24.74;32.71;98203.91;6321137;28;20063;-69
2023/09/24 13:06:46;;;;;;;7.22;4.15;;;;;;;24.53;33.58;98215.00;6321569;28;20431;-69
2023/09/24 13:09:52;;;;;;;7.32;4.63;;;;;;;24.25;34.23;98211.53;6320953;28;20059;-69
2023/09/24 13:12:58;;;;;;;10.25;4.93;;;;;;;23.97;34.58;98206.19;6321465;28;20039;-70
2023/09/24 13:16:00;;;;;;;6.75;4.63;;;;;;;23.67;35.03;98200.13;6320618;28;20531;-70
2023/09/24 13:19:04;;;;;;;6.95;4.13;;;;;;;23.51;35.53;98207.97;6321326;28;20126;-71
2023/09/24 13:22:08;;;;;;;8.63;4.57;;;;;;;23.28;36.33;98205.66;6321217;28;20435;-69
2023/09/24 13:25:11;;;;;;;9.65;4.15;;;;;;;22.94;36.94;98178.47;6320388;28;20917;-70
2023/09/24 13:28:12;;;;;;;7.82;4.53;;;;;;;22.92;37.27;98206.44;6320562;28;20413;-70
2023/09/24 13:31:19;;;;;;;14.02;5.72;;;;;;;22.79;38.46;98218.34;6320974;28;20040;-69
2023/09/24 13:34:23;;;;;;;10.20;4.55;;;;;;;22.71;38.74;98207.47;6320216;28;20059;-70
2023/09/24 13:37:28;;;;;;;19.20;6.00;;;;;;;22.58;38.97;98207.75;6320491;28;20044;-69
2023/09/24 13:40:39;;;;;;;19.73;8.02;;;;;;;22.57;39.74;98210.59;6320712;28;20501;-70
2023/09/24 13:43:44;;;;;;;21.25;7.40;;;;;;;22.48;39.96;98200.75;6320124;28;20052;-69
2023/09/24 13:46:50;;;;;;;13.77;8.23;;;;;;;22.12;40.37;98177.13;6320790;28;20044;-69
2023/09/24 13:49:54;;;;;;;15.23;7.10;;;;;;;22.19;40.15;98201.56;6320477;28;20052;-70
2023/09/24 13:52:56;;;;;;;25.73;11.77;;;;;;;22.05;40.98;98199.25;6319503;28;20071;-70
2023/09/24 13:55:57;;;;;;;24.60;12.85;;;;;;;21.89;41.21;98210.53;6320035;28;20040;-69
2023/09/24 13:59:01;;;;;;;33.65;16.83;;;;;;;21.76;41.84;98210.75;6319832;28;20535;-69
2023/09/24 14:02:06;;;;;;;50.40;25.50;;;;;;;21.68;42.54;98205.25;6320496;28;20044;-70
2023/09/24 14:05:10;;;;;;;73.63;38.35;;;;;;;21.68;43.28;98202.56;6319267;28;20056;-69
2023/09/24 14:14:56;;;;;;;102.22;54.90;;;;;;;21.61;44.77;98209.47;6319641;28;20036;-69
2023/09/24 14:17:57;;;;;;;115.85;60.95;;;;;;;21.57;45.23;98205.34;6319623;28;20044;-70
2023/09/24 14:21:11;;;;;;;126.95;66.13;;;;;;;21.55;46.47;98212.69;6319766;28;20451;-68
2023/09/24 14:24:15;;;;;;;128.82;67.45;;;;;;;21.49;46.41;98211.41;6319755;28;20040;-70
2023/09/24 14:27:16;;;;;;;131.85;71.13;;;;;;;21.44;46.72;98217.16;6319004;28;20052;-70
2023/09/24 14:30:20;;;;;;;129.15;68.97;;;;;;;21.38;46.69;98207.00;6319517;28;20055;-70
2023/09/24 14:33:22;;;;;;;139.52;72.30;;;;;;;21.35;46.85;98206.38;6318518;28;20048;-70